Time;durP1;ratioP1;P1;durP2;ratioP2;P2;SDS_P1;SDS_P2;PMS_P1;PMS_P2;Temp;Humidity;BMP_temperature;BMP_pressure;BME280_temperature;BME280_humidity;BME280_pressure;Samples;Min_cycle;Max_cycle;Signal;HPM_P1;HPM_P2
2023/08/10 00:01:05;;;;;;;3.25;1.80;;;;;;;17.62;72.74;99552.56;7254970;40;20273;31
2023/08/10 00:06:24;;;;;;;3.97;1.90;;;;;;;17.65;72.52;99546.69;7194419;40;20370;31
2023/08/10 00:11:41;;;;;;;2.45;1.85;;;;;;;17.42;73.24;99563.31;7222264;40;20253;31
2023/08/10 00:17:15;;;;;;;3.50;1.90;;;;;;;17.27;73.77;99559.91;7255078;40;20431;31
2023/08/10 00:22:32;;;;;;;3.73;1.90;;;;;;;17.20;73.93;99548.09;7238903;40;20334;31
2023/08/10 00:27:49;;;;;;;3.50;2.10;;;;;;;17.29;73.48;99555.06;7313905;39;20440;31
2023/08/10 00:33:20;;;;;;;4.50;1.80;;;;;;;17.37;74.51;99545.91;7260416;40;20252;31
2023/08/10 00:38:52;;;;;;;1.87;1.77;;;;;;;17.35;74.33;99556.16;7207509;40;20424;31
2023/08/10 00:44:13;;;;;;;3.20;2.10;;;;;;;17.29;73.73;99548.81;7233334;40;20332;31
2023/08/10 00:49:48;;;;;;;2.60;1.90;;;;;;;17.39;74.47;99552.81;7213228;40;20356;31
2023/08/10 00:55:23;;;;;;;2.10;1.83;;;;;;;17.39;73.59;99555.56;7196076;40;20242;31
2023/08/10 01:00:55;;;;;;;2.05;1.80;;;;;;;17.17;73.62;99545.78;7154226;40;20262;31
2023/08/10 01:06:32;;;;;;;2.90;1.90;;;;;;;17.02;75.13;99545.91;7177135;40;20418;31
2023/08/10 01:12:04;;;;;;;1.70;1.60;;;;;;;16.98;74.80;99546.50;7185808;40;20246;31
2023/08/10 01:17:36;;;;;;;4.37;1.97;;;;;;;16.87;74.27;99545.16;7175348;40;20359;31
2023/08/10 01:23:13;;;;;;;5.85;1.85;;;;;;;16.71;75.60;99537.31;7212064;40;20280;31
2023/08/10 01:28:46;;;;;;;5.60;2.03;;;;;;;16.61;75.00;99542.25;7185666;40;20269;31
2023/08/10 01:34:18;;;;;;;2.83;1.90;;;;;;;16.74;74.90;99533.34;7196616;40;20252;31
2023/08/10 01:39:35;;;;;;;3.67;1.90;;;;;;;16.60;74.30;99535.94;7203610;40;20252;31
2023/08/10 01:45:11;;;;;;;3.93;2.10;;;;;;;16.56;74.13;99534.63;7196004;40;20269;31
2023/08/10 01:50:43;;;;;;;3.80;1.70;;;;;;;16.53;74.65;99531.47;7166591;40;20361;31
2023/08/10 01:56:18;;;;;;;4.00;1.93;;;;;;;16.52;73.65;99530.63;7173023;40;20274;31
2023/08/10 02:06:58;;;;;;;3.30;2.30;;;;;;;16.38;74.05;99544.31;7199386;40;20271;31
2023/08/10 02:12:30;;;;;;;5.00;2.10;;;;;;;16.36;73.64;99533.63;7212279;40;20301;31
2023/08/10 02:17:46;;;;;;;3.47;2.12;;;;;;;16.17;74.87;99547.88;7201963;40;20249;31
2023/08/10 02:23:22;;;;;;;2.70;2.07;;;;;;;16.02;74.43;99545.19;7256682;40;20400;31
2023/08/10 02:28:57;;;;;;;6.13;2.60;;;;;;;15.96;75.37;99540.56;7242818;40;20238;31
2023/08/10 02:34:14;;;;;;;5.07;2.40;;;;;;;15.93;75.11;99535.47;7232992;40;20259;31
2023/08/10 02:39:47;;;;;;;2.63;2.20;;;;;;;15.86;75.01;99533.72;7306946;39;20248;31
2023/08/10 02:45:20;;;;;;;4.00;2.07;;;;;;;15.74;75.32;99538.84;7252989;40;20439;31
2023/08/10 02:50:55;;;;;;;2.00;1.80;;;;;;;15.55;76.32;99540.28;7277964;39;20355;31
2023/08/10 02:56:28;;;;;;;4.13;2.00;;;;;;;15.57;75.87;99546.38;7237708;40;20273;31
2023/08/10 03:01:46;;;;;;;5.75;2.25;;;;;;;15.46;75.53;99545.97;7153665;40;20294;31
2023/08/10 03:07:03;;;;;;;2.70;2.13;;;;;;;15.43;75.90;99538.19;7169065;40;20246;31
2023/08/10 03:12:39;;;;;;;4.00;2.20;;;;;;;15.41;75.35;99546.53;7219253;40;20251;31
2023/08/10 03:17:56;;;;;;;2.73;2.20;;;;;;;15.29;76.07;99545.34;7251383;40;20376;31
2023/08/10 03:23:13;;;;;;;2.53;2.17;;;;;;;15.24;75.98;99554.03;7234753;40;20266;31
2023/08/10 03:28:46;;;;;;;2.87;2.00;;;;;;;15.37;75.89;99541.66;7194749;40;20246;31
2023/08/10 03:34:18;;;;;;;3.65;2.00;;;;;;;15.37;76.06;99541.66;7201130;40;20360;31
2023/08/10 03:39:35;;;;;;;3.47;2.43;;;;;;;15.27;76.03;99548.22;7261426;39;22397;31
2023/08/10 03:45:08;;;;;;;2.30;2.10;;;;;;;15.19;76.33;99548.31;7088772;40;21461;31
2023/08/10 03:50:25;;;;;;;5.10;2.33;;;;;;;15.26;75.51;99540.28;7236870;40;20306;31
2023/08/10 03:55:57;;;;;;;4.13;2.50;;;;;;;15.14;75.93;99544.47;7274460;40;20303;31
2023/08/10 04:01:34;;;;;;;3.77;2.20;;;;;;;14.94;77.05;99552.34;7232998;40;20251;31
2023/08/10 04:07:07;;;;;;;4.35;2.40;;;;;;;14.84;77.07;99549.06;7222336;40;20323;31
2023/08/10 04:12:41;;;;;;;3.23;2.40;;;;;;;14.87;77.16;99565.81;7193989;40;20726;31
2023/08/10 04:23:21;;;;;;;3.60;2.50;;;;;;;15.26;74.76;99579.16;7184413;40;20820;31
2023/08/10 04:28:42;;;;;;;3.07;2.13;;;;;;;15.08;76.24;99578.66;7194341;40;20297;31
2023/08/10 04:34:00;;;;;;;3.77;2.20;;;;;;;14.77;78.30;99586.97;7204356;40;20308;31
2023/08/10 04:39:32;;;;;;;7.73;2.40;;;;;;;14.71;78.76;99589.53;7253553;40;21278;31
2023/08/10 04:45:04;;;;;;;3.75;2.20;;;;;;;14.86;78.80;99601.28;7270810;39;20285;31
2023/08/10 04:50:21;;;;;;;6.53;2.40;;;;;;;14.89;78.52;99603.63;7251259;40;20621;31
2023/08/10 04:55:54;;;;;;;2.20;2.00;;;;;;;14.98;78.54;99591.66;7276527;40;20250;31
2023/08/10 05:01:26;;;;;;;4.20;2.45;;;;;;;15.19;77.49;99604.50;7204205;40;20386;31
2023/08/10 05:06:58;;;;;;;3.90;2.03;;;;;;;15.42;77.64;99597.13;7194720;40;20431;31
2023/08/10 05:12:31;;;;;;;3.90;2.30;;;;;;;15.49;77.34;99600.75;7224607;40;20405;31
2023/08/10 05:17:52;;;;;;;5.70;2.20;;;;;;;15.57;76.72;99602.59;7250476;40;20357;31
2023/08/10 05:23:09;;;;;;;6.10;2.57;;;;;;;15.52;76.11;99605.88;7192898;40;20365;31
2023/08/10 05:28:42;;;;;;;3.25;2.45;;;;;;;15.54;76.53;99616.53;7219310;40;20263;31
2023/08/10 05:34:14;;;;;;;4.25;2.20;;;;;;;15.53;77.42;99623.88;7257896;40;20282;31
2023/08/10 05:39:46;;;;;;;4.03;2.50;;;;;;;15.46;77.76;99625.59;7185816;40;20248;31
2023/08/10 05:45:21;;;;;;;3.10;2.30;;;;;;;15.52;77.78;99627.59;7194544;40;20296;31
2023/08/10 05:50:52;;;;;;;2.90;2.10;;;;;;;15.64;77.25;99628.81;7154613;40;20271;31
2023/08/10 05:56:13;;;;;;;4.10;2.40;;;;;;;15.90;76.79;99641.91;7152881;40;20281;31
2023/08/10 06:01:48;;;;;;;5.93;2.30;;;;;;;16.07;76.18;99640.66;7196706;40;20459;31
2023/08/10 06:07:23;;;;;;;6.10;2.12;;;;;;;16.27;76.33;99649.06;7232408;40;20299;31
2023/08/10 06:18:02;;;;;;;3.67;2.45;;;;;;;16.62;75.37;99650.09;7210314;40;20275;31
2023/08/10 06:29:05;;;;;;;4.10;2.37;;;;;;;16.80;74.34;99661.38;7359099;38;9999974;31
2023/08/10 06:34:37;;;;;;;3.70;2.10;;;;;;;16.91;74.40;99658.09;7343315;39;20259;31
2023/08/10 06:40:09;;;;;;;3.90;2.40;;;;;;;17.03;74.26;99666.56;7303202;39;20247;31
2023/08/10 06:45:40;;;;;;;5.60;2.40;;;;;;;17.19;75.27;99671.75;7279963;39;20300;31
2023/08/10 06:51:12;;;;;;;4.10;2.47;;;;;;;17.42;74.00;99675.06;7256133;39;20380;31
2023/08/10 06:56:44;;;;;;;4.17;2.63;;;;;;;17.64;73.87;99673.13;7249066;40;20242;31
2023/08/10 07:02:17;;;;;;;3.80;2.20;;;;;;;17.86;73.22;99674.72;7289591;39;20271;31
2023/08/10 07:07:35;;;;;;;3.53;2.33;;;;;;;18.09;72.88;99668.13;7260862;40;20343;31
2023/08/10 07:12:55;;;;;;;3.77;2.17;;;;;;;18.28;72.58;99672.84;7265762;40;20290;31
2023/08/10 07:23:34;;;;;;;3.57;2.40;;;;;;;18.64;71.70;99669.81;7313980;39;20282;31
2023/08/10 07:34:13;;;;;;;2.80;2.33;;;;;;;19.15;70.59;99676.38;7393697;39;20275;31
2023/08/10 07:39:48;;;;;;;4.00;2.20;;;;;;;19.29;69.05;99674.50;7324267;39;21458;31
2023/08/10 07:45:18;;;;;;;2.20;2.00;;;;;;;19.54;68.56;99669.22;7291034;39;20360;31
2023/08/10 07:50:54;;;;;;;3.90;2.30;;;;;;;19.82;67.15;99672.56;7297997;40;20282;31
2023/08/10 07:56:29;;;;;;;2.30;1.97;;;;;;;20.03;66.74;99663.22;7230942;40;20261;31
2023/08/10 08:02:04;;;;;;;4.00;1.90;;;;;;;20.06;67.34;99668.25;7264165;39;20275;31
2023/08/10 08:07:37;;;;;;;2.90;2.00;;;;;;;20.30;65.71;99669.47;7276870;39;20257;31
2023/08/10 08:13:10;;;;;;;2.77;1.90;;;;;;;20.59;64.34;99666.97;7242947;40;20306;31
2023/08/10 08:18:57;;;;;;;3.57;2.23;;;;;;;20.75;64.81;99673.00;7247819;40;20256;31
2023/08/10 08:24:18;;;;;;;2.27;2.00;;;;;;;20.98;63.43;99665.03;7194841;40;20277;31
2023/08/10 08:29:54;;;;;;;2.70;2.10;;;;;;;21.22;63.48;99666.13;7240424;40;20560;31
2023/08/10 08:40:33;;;;;;;3.83;2.10;;;;;;;21.52;62.25;99645.19;7272526;39;20330;31
2023/08/10 08:46:10;;;;;;;3.87;2.10;;;;;;;21.70;61.63;99653.44;7212362;40;20344;31
2023/08/10 08:51:42;;;;;;;3.15;2.28;;;;;;;21.88;61.11;99649.87;7268731;39;20263;31
2023/08/10 08:57:02;;;;;;;3.10;2.30;;;;;;;22.10;60.93;99656.59;7272941;40;20288;31
2023/08/10 09:07:40;;;;;;;5.74;2.34;;;;;;;22.63;60.34;99644.91;7320731;39;21141;31
2023/08/10 09:13:24;;;;;;;2.95;2.45;;;;;;;22.79;59.09;99638.78;7317733;39;20256;31
2023/08/10 09:18:56;;;;;;;2.40;2.00;;;;;;;22.99;58.86;99628.31;7353417;39;20246;31
2023/08/10 09:24:27;;;;;;;3.46;2.30;;;;;;;23.08;57.24;99618.63;7294446;39;20255;31
2023/08/10 09:29:59;;;;;;;2.90;2.17;;;;;;;23.01;55.31;99612.41;7247886;39;20257;31
2023/08/10 09:35:34;;;;;;;4.10;2.30;;;;;;;23.04;57.87;99614.66;7253636;40;20280;31
2023/08/10 09:41:05;;;;;;;4.37;2.10;;;;;;;23.28;57.29;99604.53;7202428;40;20277;31
2023/08/10 09:46:40;;;;;;;4.60;2.70;;;;;;;23.48;56.06;99609.69;7255116;40;20362;31
2023/08/10 09:52:13;;;;;;;3.40;2.20;;;;;;;23.68;56.37;99611.00;7245228;40;20253;31
2023/08/10 09:57:49;;;;;;;2.68;2.42;;;;;;;23.75;54.98;99606.19;7286754;39;20426;31
2023/08/10 10:03:28;;;;;;;4.20;2.25;;;;;;;23.99;54.94;99604.25;7292907;40;20261;31
2023/08/10 10:08:59;;;;;;;3.85;2.30;;;;;;;24.16;56.33;99601.59;7240692;40;20324;31
2023/08/10 10:14:33;;;;;;;4.18;2.47;;;;;;;24.43;55.62;99601.84;7296016;39;20259;31
2023/08/10 10:20:11;;;;;;;2.90;1.90;;;;;;;24.58;53.90;99599.34;7278250;40;20272;31
2023/08/10 10:30:46;;;;;;;6.10;2.40;;;;;;;24.65;53.97;99591.78;7320639;39;20416;31
2023/08/10 10:36:21;;;;;;;2.20;2.00;;;;;;;24.93;52.14;99585.38;7263165;40;20428;31
2023/08/10 10:41:56;;;;;;;6.60;2.30;;;;;;;25.16;51.16;99576.09;7255702;40;21154;31
2023/08/10 10:47:33;;;;;;;2.80;2.30;;;;;;;25.23;50.71;99577.59;7253696;40;20305;31
2023/08/10 10:53:09;;;;;;;5.05;2.30;;;;;;;25.23;49.98;99561.03;7224347;40;20448;31
2023/08/10 10:58:40;;;;;;;3.60;2.20;;;;;;;25.43;49.15;99563.28;7182125;40;20293;31
2023/08/10 11:04:13;;;;;;;3.28;1.92;;;;;;;25.53;48.72;99557.91;7243437;40;20335;31
2023/08/10 11:14:49;;;;;;;4.40;1.87;;;;;;;25.61;45.33;99548.38;7303165;39;20272;31
2023/08/10 11:20:23;;;;;;;2.58;2.17;;;;;;;25.85;45.99;99536.81;7288188;39;20279;31
2023/08/10 11:25:59;;;;;;;2.75;2.05;;;;;;;26.07;46.74;99544.22;7295104;39;20322;31
2023/08/10 11:31:31;;;;;;;2.40;2.08;;;;;;;26.16;45.87;99535.22;7319445;39;20515;31
2023/08/10 11:37:07;;;;;;;2.50;1.95;;;;;;;26.32;46.45;99539.03;7333892;39;20329;31
2023/08/10 11:42:42;;;;;;;3.85;2.03;;;;;;;26.35;43.92;99532.97;7270254;39;20438;31
2023/08/10 11:48:00;;;;;;;3.90;2.20;;;;;;;26.23;46.23;99530.38;7241485;40;20361;31
2023/08/10 11:58:38;;;;;;;3.10;2.10;;;;;;;26.64;44.37;99539.88;7316525;39;20255;31
2023/08/10 12:04:14;;;;;;;3.45;2.00;;;;;;;26.63;44.53;99538.25;7255221;40;20359;31
2023/08/10 12:09:50;;;;;;;2.40;1.95;;;;;;;26.76;43.05;99539.72;7234151;40;20459;31
2023/08/10 12:15:37;;;;;;;2.20;2.00;;;;;;;26.98;44.40;99546.03;7234555;40;20258;31
2023/08/10 12:21:09;;;;;;;2.70;2.10;;;;;;;26.90;42.38;99552.03;7223904;40;20277;31
2023/08/10 12:31:44;;;;;;;3.22;2.10;;;;;;;27.08;43.42;99559.09;7301833;39;20545;31
2023/08/10 12:42:06;;;;;;;3.53;2.00;;;;;;;26.97;43.15;99569.25;7394588;39;21352;31
2023/08/10 12:52:43;;;;;;;2.40;1.90;;;;;;;27.06;41.81;99561.31;7416659;39;20278;31
2023/08/10 12:58:04;;;;;;;2.30;2.00;;;;;;;27.09;42.42;99549.69;7314777;39;20272;31
2023/08/10 13:03:36;;;;;;;2.35;1.95;;;;;;;27.39;41.73;99544.34;7143691;39;20632;31
2023/08/10 13:09:12;;;;;;;2.55;2.00;;;;;;;27.39;41.30;99535.22;7293685;39;20346;31
2023/08/10 13:14:45;;;;;;;2.55;2.10;;;;;;;27.55;41.73;99526.78;7303920;39;20341;31
2023/08/10 13:20:16;;;;;;;2.60;2.00;;;;;;;27.62;41.48;99524.59;7303327;39;20515;31
2023/08/10 13:25:49;;;;;;;2.92;2.03;;;;;;;27.55;41.51;99521.25;7270089;39;20337;31
2023/08/10 13:31:24;;;;;;;3.34;2.36;;;;;;;27.81;41.66;99524.97;7280160;39;20245;31
2023/08/10 13:36:59;;;;;;;5.28;1.98;;;;;;;27.67;41.33;99518.25;7276359;39;20260;31
2023/08/10 13:42:35;;;;;;;2.17;1.75;;;;;;;27.61;41.12;99525.69;7286855;39;20260;31
2023/08/10 13:47:53;;;;;;;2.43;2.03;;;;;;;27.65;40.35;99518.50;7287920;39;20270;31
2023/08/10 13:53:13;;;;;;;2.95;1.90;;;;;;;27.59;40.95;99505.75;7267020;40;20252;31
2023/08/10 13:58:45;;;;;;;3.72;2.03;;;;;;;27.58;41.31;99504.06;7300933;39;20593;31
2023/08/10 14:04:06;;;;;;;2.37;2.12;;;;;;;27.74;41.49;99504.97;7281916;40;20342;31
2023/08/10 14:09:27;;;;;;;2.20;1.80;;;;;;;27.85;42.31;99505.84;7243264;40;20272;31
2023/08/10 14:15:03;;;;;;;3.75;2.00;;;;;;;27.82;42.76;99492.53;7294587;40;20426;31
2023/08/10 14:20:20;;;;;;;3.58;1.90;;;;;;;27.98;41.74;99497.03;7261918;39;20260;31
2023/08/10 14:25:40;;;;;;;2.80;2.00;;;;;;;27.97;42.29;99489.81;7275866;40;20339;31
2023/08/10 14:31:15;;;;;;;2.58;2.28;;;;;;;27.99;41.33;99480.13;7274829;40;20492;31
2023/08/10 14:36:36;;;;;;;3.83;2.15;;;;;;;27.93;41.61;99470.13;7311597;39;20268;31
2023/08/10 14:41:57;;;;;;;3.40;2.08;;;;;;;28.04;42.76;99469.03;7295308;39;20360;31
2023/08/10 14:47:29;;;;;;;2.80;2.08;;;;;;;27.98;41.61;99474.84;7326840;39;20353;31
2023/08/10 14:58:08;;;;;;;2.53;2.12;;;;;;;27.96;42.37;99469.56;7299026;39;21005;31
2023/08/10 15:03:45;;;;;;;3.53;2.00;;;;;;;27.94;43.06;99476.50;7295024;40;20252;31
2023/08/10 15:09:21;;;;;;;2.12;1.83;;;;;;;27.85;41.12;99473.44;7273558;40;20366;31
2023/08/10 15:14:52;;;;;;;2.55;1.95;;;;;;;27.89;41.37;99476.47;7282136;39;20249;31
2023/08/10 15:20:26;;;;;;;2.65;2.25;;;;;;;27.95;42.82;99476.22;7295907;40;20416;31
2023/08/10 15:25:58;;;;;;;3.53;2.25;;;;;;;27.97;41.50;99470.41;7299131;39;20442;31
2023/08/10 15:36:35;;;;;;;3.70;2.40;;;;;;;28.02;41.19;99474.03;7337024;39;21337;31
2023/08/10 15:46:56;;;;;;;2.28;2.08;;;;;;;27.97;42.58;99478.72;7353727;39;21090;31
2023/08/10 15:57:37;;;;;;;2.87;2.00;;;;;;;27.89;40.87;99471.78;7365306;39;21101;31
2023/08/10 16:02:54;;;;;;;2.60;2.05;;;;;;;27.90;42.38;99462.38;7315684;39;20284;31
2023/08/10 16:08:14;;;;;;;2.42;1.90;;;;;;;28.03;42.76;99466.53;7317477;39;20680;31
2023/08/10 16:13:45;;;;;;;2.35;2.12;;;;;;;28.05;43.43;99467.09;7334040;39;20260;31
2023/08/10 16:19:17;;;;;;;3.00;2.15;;;;;;;27.91;42.48;99458.47;7294463;39;20279;31
2023/08/10 16:24:34;;;;;;;3.18;2.02;;;;;;;27.66;43.41;99459.22;7314066;39;20281;31
2023/08/10 16:30:10;;;;;;;4.05;2.20;;;;;;;27.56;43.41;99461.94;7294960;40;20276;31
2023/08/10 16:35:45;;;;;;;4.60;2.10;;;;;;;27.57;44.31;99463.62;7262849;40;20349;31
2023/08/10 16:41:03;;;;;;;3.00;2.30;;;;;;;27.42;44.35;99466.31;7247987;40;20268;31
2023/08/10 16:46:38;;;;;;;2.65;2.20;;;;;;;27.37;45.57;99469.06;7290895;39;20265;31
2023/08/10 16:51:58;;;;;;;2.30;2.10;;;;;;;27.17;45.13;99463.38;7252577;40;20253;31
2023/08/10 16:57:18;;;;;;;3.62;2.15;;;;;;;27.13;45.10;99465.88;7239553;40;20355;31
2023/08/10 17:02:54;;;;;;;2.67;2.08;;;;;;;26.88;44.11;99472.06;7312025;39;20282;31
2023/08/10 17:08:11;;;;;;;2.23;1.87;;;;;;;26.73;44.08;99474.69;7249092;40;20397;31
2023/08/10 17:13:32;;;;;;;3.43;2.20;;;;;;;26.54;44.40;99478.97;7350542;39;20333;31
2023/08/10 17:19:05;;;;;;;3.44;2.24;;;;;;;26.43;43.92;99475.28;7330386;39;20274;31
2023/08/10 17:29:27;;;;;;;2.80;2.15;;;;;;;26.28;44.01;99480.69;7337563;39;20533;31
2023/08/10 17:35:00;;;;;;;4.16;2.06;;;;;;;26.11;44.47;99487.38;7293471;39;20338;31
2023/08/10 17:45:36;;;;;;;3.03;2.10;;;;;;;25.90;44.49;99487.12;7312655;39;21326;31
2023/08/10 17:56:13;;;;;;;3.22;2.67;;;;;;;25.70;45.06;99481.41;7367709;39;21407;31
2023/08/10 18:06:53;;;;;;;2.40;2.20;;;;;;;25.40;43.71;99490.09;7387626;39;21251;31
2023/08/10 18:12:29;;;;;;;3.40;2.40;;;;;;;25.29;44.27;99487.44;7293377;40;20279;31
2023/08/10 18:17:49;;;;;;;2.50;2.30;;;;;;;25.27;44.48;99498.75;7223756;40;20369;31
2023/08/10 18:23:25;;;;;;;4.80;2.37;;;;;;;25.17;45.03;99500.53;7258605;40;20327;31
2023/08/10 18:29:00;;;;;;;2.62;2.17;;;;;;;25.07;46.78;99510.31;7226670;40;20335;31
2023/08/10 18:34:20;;;;;;;3.80;2.35;;;;;;;25.00;46.13;99504.16;7226431;39;20253;31
2023/08/10 18:39:41;;;;;;;4.00;2.38;;;;;;;24.84;46.67;99504.94;7245179;40;20253;31
2023/08/10 18:45:14;;;;;;;4.43;2.28;;;;;;;24.68;47.12;99516.81;7192769;40;20274;31
2023/08/10 18:50:49;;;;;;;3.87;2.33;;;;;;;24.52;49.32;99513.00;7211202;40;20331;31
2023/08/10 18:56:09;;;;;;;2.95;2.60;;;;;;;24.10;52.79;99523.47;7176076;40;20670;31
2023/08/10 19:01:45;;;;;;;3.58;2.60;;;;;;;23.72;53.34;99529.59;7229361;40;20271;31
2023/08/10 19:07:20;;;;;;;3.25;2.30;;;;;;;23.54;54.50;99527.00;7276490;39;20259;31
2023/08/10 19:12:52;;;;;;;3.57;2.70;;;;;;;23.27;55.80;99547.81;7263953;40;20439;31
2023/08/10 19:23:29;;;;;;;3.95;2.35;;;;;;;23.17;56.44;99566.84;7274027;40;21218;31
2023/08/10 19:34:08;;;;;;;3.80;2.40;;;;;;;22.81;57.26;99582.50;7366947;39;21223;31
2023/08/10 19:44:45;;;;;;;3.70;2.40;;;;;;;22.43;57.98;99588.31;7305605;39;20666;31
2023/08/10 19:55:21;;;;;;;5.80;2.45;;;;;;;22.20;58.93;99601.97;7291302;39;21185;31
2023/08/10 20:00:58;;;;;;;3.40;2.50;;;;;;;22.07;57.94;99604.06;7319076;39;20240;31
2023/08/10 20:06:16;;;;;;;4.35;2.45;;;;;;;21.87;58.18;99612.50;7059986;40;20237;31
2023/08/10 20:11:34;;;;;;;3.90;2.70;;;;;;;21.84;58.32;99604.72;7295125;39;20264;31
2023/08/10 20:17:10;;;;;;;5.45;2.80;;;;;;;21.71;59.16;99607.63;7273486;40;20263;31
2023/08/10 20:22:27;;;;;;;5.60;2.63;;;;;;;21.61;60.03;99590.84;7244522;40;20257;31
2023/08/10 20:28:04;;;;;;;3.62;2.87;;;;;;;21.43;60.23;99594.41;7274002;40;20352;31
2023/08/10 20:33:36;;;;;;;2.40;2.20;;;;;;;21.29;60.02;99590.97;7252242;40;20334;31
2023/08/10 20:38:53;;;;;;;2.40;2.20;;;;;;;21.12;60.84;99593.47;7319066;39;20355;31
2023/08/10 20:44:27;;;;;;;3.53;2.75;;;;;;;20.85;61.91;99602.94;7337790;39;20359;31
2023/08/10 20:49:58;;;;;;;4.85;2.90;;;;;;;20.76;61.68;99606.16;7252509;40;20257;31
2023/08/10 20:55:16;;;;;;;3.55;3.08;;;;;;;20.78;61.08;99604.91;7251809;40;20268;31
2023/08/10 21:00:33;;;;;;;4.20;2.80;;;;;;;20.73;62.28;99603.88;7307423;39;20251;31
2023/08/10 21:06:04;;;;;;;2.95;2.62;;;;;;;20.62;61.99;99600.78;7272293;40;20331;31
2023/08/10 21:11:21;;;;;;;3.78;2.80;;;;;;;20.42;63.36;99602.81;7266222;39;20279;31
2023/08/10 21:16:56;;;;;;;3.95;2.85;;;;;;;20.21;63.05;99608.59;7287317;40;20309;31
2023/08/10 21:22:32;;;;;;;3.75;2.70;;;;;;;20.19;62.29;99616.19;7247619;40;20303;31
2023/08/10 21:27:49;;;;;;;2.73;2.47;;;;;;;20.17;62.25;99621.06;7219861;40;20269;31
2023/08/10 21:33:21;;;;;;;4.70;3.40;;;;;;;20.17;62.73;99629.25;7223759;40;20539;31
2023/08/10 21:38:55;;;;;;;5.28;3.00;;;;;;;20.12;62.39;99627.19;7287361;39;20388;31
2023/08/10 21:49:34;;;;;;;3.45;2.50;;;;;;;19.78;63.36;99635.75;7285674;40;20258;31
2023/08/10 21:55:05;;;;;;;5.17;2.30;;;;;;;19.58;63.12;99632.19;7274090;40;20335;31
2023/08/10 22:00:25;;;;;;;3.45;2.30;;;;;;;19.59;61.73;99633.88;7275423;40;20454;31
2023/08/10 22:05:56;;;;;;;3.65;2.40;;;;;;;19.58;62.50;99638.50;7337576;39;21201;31
2023/08/10 22:11:32;;;;;;;4.83;2.50;;;;;;;19.63;61.08;99624.19;7322558;39;20682;31
2023/08/10 22:22:12;;;;;;;3.20;2.40;;;;;;;19.53;62.44;99629.25;7264175;40;20266;31
2023/08/10 22:27:47;;;;;;;7.43;2.50;;;;;;;19.34;62.49;99620.87;7262890;40;20366;31
2023/08/10 22:33:06;;;;;;;4.47;2.90;;;;;;;19.37;63.20;99622.34;7246403;40;20563;31
2023/08/10 22:38:40;;;;;;;4.62;2.62;;;;;;;19.15;64.05;99621.72;7275764;40;20263;31
2023/08/10 22:44:16;;;;;;;3.90;2.60;;;;;;;19.16;65.05;99619.84;7291223;39;20272;31
2023/08/10 22:49:51;;;;;;;2.70;2.43;;;;;;;19.04;65.39;99611.44;7262282;40;20803;31
2023/08/10 22:55:21;;;;;;;4.00;2.47;;;;;;;19.09;63.95;99603.44;7273764;39;20255;31
2023/08/10 23:00:57;;;;;;;3.10;2.50;;;;;;;18.94;64.06;99612.91;7243853;40;20249;31
2023/08/10 23:06:32;;;;;;;2.97;2.57;;;;;;;18.68;66.75;99614.59;7182809;40;20246;31
2023/08/10 23:11:52;;;;;;;4.40;2.70;;;;;;;18.70;65.03;99611.63;7215339;40;20258;31
2023/08/10 23:17:27;;;;;;;2.53;2.33;;;;;;;18.70;64.76;99614.34;7195886;40;20329;31
2023/08/10 23:23:00;;;;;;;2.83;2.40;;;;;;;18.79;65.20;99611.22;7192846;40;21029;31
2023/08/10 23:33:40;;;;;;;5.35;2.65;;;;;;;18.64;66.07;99604.28;7314676;39;20390;31
2023/08/10 23:39:00;;;;;;;8.87;2.60;;;;;;;18.56;65.43;99616.22;7366628;39;20262;31
2023/08/10 23:44:29;;;;;;;4.25;2.40;;;;;;;18.42;65.92;99622.69;7335934;39;20352;31
2023/08/10 23:50:02;;;;;;;2.77;2.30;;;;;;;18.32;66.22;99627.72;7312661;39;20376;31
2023/08/10 23:55:37;;;;;;;2.80;2.50;;;;;;;18.33;66.29;99632.97;7293348;40;20264;31
